createdAt,value
2023-01-04T00:00:37.757Z,4.28
2023-01-04T00:02:39.426Z,4.28
2023-01-04T00:04:45.097Z,4.04
2023-01-04T00:06:49.765Z,4.15
2023-01-04T00:08:51.407Z,3.97
2023-01-04T00:10:53.075Z,4.13
2023-01-04T00:12:54.613Z,4.25
2023-01-04T00:14:56.021Z,4.04
2023-01-04T00:16:57.691Z,4.08
2023-01-04T00:19:01.715Z,4.06
2023-01-04T00:21:09.458Z,3.87
2023-01-04T00:23:12.964Z,3.89
2023-01-04T00:25:14.532Z,3.99
2023-01-04T00:27:16.148Z,4.04
2023-01-04T00:29:18.092Z,3.92
2023-01-04T00:31:19.651Z,3.81
2023-01-04T00:33:21.033Z,3.80
2023-01-04T00:35:44.781Z,3.89
2023-01-04T00:37:51.662Z,3.90
2023-01-04T00:39:53.672Z,3.66
2023-01-04T00:42:00.041Z,3.65
2023-01-04T00:44:02.000Z,3.73
2023-01-04T00:46:03.739Z,3.73
2023-01-04T00:48:06.175Z,3.70
2023-01-04T00:50:08.485Z,3.76
2023-01-04T00:52:10.108Z,3.57
2023-01-04T00:54:14.484Z,3.74
2023-01-04T00:56:16.040Z,3.58
2023-01-04T00:58:19.647Z,3.50
2023-01-04T01:00:21.396Z,3.65
2023-01-04T01:02:23.226Z,3.73
2023-01-04T01:04:25.767Z,3.75
2023-01-04T01:06:31.287Z,3.69
2023-01-04T01:08:33.950Z,3.75
2023-01-04T01:10:37.047Z,3.66
2023-01-04T01:12:38.888Z,3.70
2023-01-04T01:14:40.578Z,3.75
2023-01-04T01:16:55.001Z,3.76
2023-01-04T01:18:58.558Z,3.56
2023-01-04T01:20:59.927Z,3.63
2023-01-04T01:23:01.535Z,3.74
2023-01-04T01:25:03.165Z,3.63
2023-01-04T01:27:06.137Z,3.86
2023-01-04T01:29:07.683Z,3.84
2023-01-04T01:31:14.174Z,3.69
2023-01-04T01:33:16.075Z,3.56
2023-01-04T01:35:17.522Z,3.73
2023-01-04T01:37:19.179Z,3.59
2023-01-04T01:39:22.124Z,3.63
2023-01-04T01:41:25.672Z,3.40
2023-01-04T01:43:48.402Z,3.55
2023-01-04T01:45:54.739Z,3.42
2023-01-04T01:48:06.672Z,3.36
2023-01-04T01:50:22.789Z,3.31
2023-01-04T01:52:34.230Z,3.46
2023-01-04T01:54:47.528Z,3.53
2023-01-04T01:56:58.591Z,3.50
2023-01-04T01:59:06.260Z,3.41
2023-01-04T02:01:08.555Z,3.33
2023-01-04T02:03:16.050Z,3.36
2023-01-04T02:05:21.706Z,3.34
2023-01-04T02:07:27.290Z,3.16
2023-01-04T02:09:31.092Z,3.32
2023-01-04T02:11:32.760Z,3.30
2023-01-04T02:13:35.528Z,3.28
2023-01-04T02:15:51.586Z,3.28
2023-01-04T02:18:00.166Z,3.09
2023-01-04T02:20:34.237Z,3.19
2023-01-04T02:22:54.436Z,3.11
2023-01-04T02:25:14.814Z,3.20
2023-01-04T02:27:36.236Z,3.34
2023-01-04T02:29:59.690Z,3.23
2023-01-04T02:32:07.140Z,3.16
2023-01-04T02:34:19.772Z,3.29
2023-01-04T02:36:31.479Z,3.10
2023-01-04T02:38:43.989Z,3.23
2023-01-04T02:40:57.585Z,3.15
2023-01-04T02:43:15.515Z,3.13
2023-01-04T02:45:23.920Z,3.11
2023-01-04T02:47:31.774Z,3.24
2023-01-04T02:49:36.506Z,3.25
2023-01-04T02:51:41.134Z,3.09
2023-01-04T02:53:42.832Z,3.37
2023-01-04T02:55:51.569Z,3.31
2023-01-04T02:58:00.967Z,3.30
2023-01-04T03:00:22.339Z,3.09
2023-01-04T03:02:38.694Z,3.00
2023-01-04T03:04:54.588Z,3.05
2023-01-04T03:07:01.408Z,3.09
2023-01-04T03:09:08.230Z,3.15
2023-01-04T03:11:12.109Z,3.14
2023-01-04T03:13:18.990Z,3.16
2023-01-04T03:15:23.364Z,3.15
2023-01-04T03:17:26.696Z,3.15
2023-01-04T03:19:31.653Z,3.38
2023-01-04T03:21:33.444Z,3.29
2023-01-04T03:23:36.765Z,3.32
2023-01-04T03:25:43.717Z,3.25
2023-01-04T03:27:48.258Z,3.22
2023-01-04T03:29:58.381Z,3.44
2023-01-04T03:32:06.925Z,3.40
2023-01-04T03:34:08.963Z,3.34
2023-01-04T03:36:22.522Z,3.36
2023-01-04T03:38:34.441Z,3.23
2023-01-04T03:40:36.589Z,3.38
2023-01-04T03:42:45.733Z,3.47
2023-01-04T03:44:55.462Z,3.61
2023-01-04T03:47:05.269Z,3.61
2023-01-04T03:49:13.427Z,3.56
2023-01-04T03:51:20.573Z,3.57
2023-01-04T03:53:23.064Z,3.34
2023-01-04T03:55:26.017Z,3.39
2023-01-04T03:57:28.218Z,3.48
2023-01-04T03:59:30.064Z,3.45
2023-01-04T04:01:32.088Z,3.35
2023-01-04T04:03:33.767Z,3.55
2023-01-04T04:05:37.579Z,3.58
2023-01-04T04:07:40.569Z,3.50
2023-01-04T04:09:42.236Z,3.53
2023-01-04T04:11:43.744Z,3.35
2023-01-04T04:13:45.563Z,3.38
2023-01-04T04:15:47.824Z,3.49
2023-01-04T04:17:49.476Z,3.59
2023-01-04T04:19:50.794Z,3.66
2023-01-04T04:21:52.325Z,3.52
2023-01-04T04:23:56.343Z,3.56
2023-01-04T04:25:57.897Z,3.53
2023-01-04T04:27:59.510Z,3.61
2023-01-04T04:30:00.919Z,3.60
2023-01-04T04:32:02.577Z,3.57
2023-01-04T04:34:04.234Z,3.69
2023-01-04T04:36:06.444Z,3.65
2023-01-04T04:38:07.982Z,3.83
2023-01-04T04:40:12.625Z,3.68
2023-01-04T04:42:14.231Z,3.79
2023-01-04T04:44:16.405Z,3.71
2023-01-04T04:46:18.045Z,3.51
2023-01-04T04:48:19.453Z,3.75
2023-01-04T04:50:21.000Z,3.70
2023-01-04T04:52:22.521Z,3.77
2023-01-04T04:54:24.114Z,3.81
2023-01-04T04:56:27.058Z,3.77
2023-01-04T04:58:28.618Z,3.81
2023-01-04T05:00:30.259Z,3.76
2023-01-04T05:02:31.841Z,3.76
2023-01-04T05:04:33.760Z,3.70
2023-01-04T05:06:35.124Z,3.90
2023-01-04T05:08:36.900Z,3.87
2023-01-04T05:10:38.752Z,3.85
2023-01-04T05:12:41.755Z,4.06
2023-01-04T05:14:43.444Z,4.05
2023-01-04T05:16:44.858Z,3.96
2023-01-04T05:18:46.436Z,4.01
2023-01-04T05:20:48.367Z,4.08
2023-01-04T05:22:49.986Z,3.97
2023-01-04T05:24:51.339Z,3.93
2023-01-04T05:26:52.953Z,3.96
2023-01-04T05:28:55.807Z,3.86
2023-01-04T05:30:57.447Z,4.14
2023-01-04T05:32:58.881Z,4.07
2023-01-04T05:35:00.431Z,4.01
2023-01-04T05:37:02.032Z,4.06
2023-01-04T05:39:03.463Z,4.01
2023-01-04T05:41:05.360Z,4.06
2023-01-04T05:43:07.732Z,4.19
2023-01-04T05:45:11.393Z,4.27
2023-01-04T05:47:15.042Z,4.10
2023-01-04T05:49:17.004Z,4.19
2023-01-04T05:51:18.590Z,4.30
2023-01-04T05:53:19.960Z,4.33
2023-01-04T05:55:21.539Z,4.27
2023-01-04T05:57:23.342Z,4.45
2023-01-04T05:59:24.929Z,4.23
2023-01-04T06:01:27.899Z,4.35
2023-01-04T06:03:29.548Z,4.51
2023-01-04T06:05:30.992Z,4.54
2023-01-04T06:07:33.071Z,4.49
2023-01-04T06:09:34.614Z,4.34
2023-01-04T06:11:36.161Z,4.50
2023-01-04T06:13:37.776Z,4.45
2023-01-04T06:15:42.999Z,4.37
2023-01-04T06:17:46.332Z,4.57
2023-01-04T06:19:47.958Z,4.45
2023-01-04T06:21:49.299Z,4.65
2023-01-04T06:23:50.829Z,4.74
2023-01-04T06:25:52.511Z,4.65
2023-01-04T06:27:53.871Z,4.65
2023-01-04T06:29:55.436Z,4.58
2023-01-04T06:31:57.157Z,4.75
2023-01-04T06:34:00.754Z,4.68
2023-01-04T06:36:02.736Z,5.19
2023-01-04T06:38:04.625Z,6.98
2023-01-04T06:40:07.867Z,6.15
2023-01-04T06:42:09.390Z,7.04
2023-01-04T06:44:10.976Z,8.09
2023-01-04T06:46:12.351Z,8.61
2023-01-04T06:48:18.344Z,8.69
2023-01-04T06:50:21.659Z,8.15
2023-01-04T06:52:23.256Z,7.82
2023-01-04T06:54:24.805Z,6.97
2023-01-04T06:56:26.279Z,6.88
2023-01-04T06:58:27.897Z,6.74
2023-01-04T07:00:29.488Z,6.53
2023-01-04T07:02:30.997Z,6.40
2023-01-04T07:04:33.083Z,6.31
2023-01-04T07:06:36.723Z,6.25
2023-01-04T07:08:38.284Z,6.22
2023-01-04T07:10:39.811Z,6.27
2023-01-04T07:12:41.309Z,6.28
2023-01-04T07:14:42.895Z,6.28
2023-01-04T07:16:44.249Z,6.27
2023-01-04T07:18:45.813Z,6.30
2023-01-04T07:20:47.152Z,6.30
2023-01-04T07:22:50.155Z,6.26
2023-01-04T07:24:51.675Z,6.31
2023-01-04T07:26:53.040Z,6.30
2023-01-04T07:28:54.553Z,6.21
2023-01-04T07:30:55.915Z,6.21
2023-01-04T07:32:57.598Z,6.24
2023-01-04T07:34:59.220Z,6.18
2023-01-04T07:37:00.793Z,6.22
2023-01-04T07:39:03.882Z,6.22
2023-01-04T07:41:05.540Z,6.23
2023-01-04T07:43:07.078Z,6.26
2023-01-04T07:45:08.963Z,6.21
2023-01-04T07:47:10.773Z,6.22
2023-01-04T07:49:17.381Z,6.13
2023-01-04T07:51:19.614Z,6.16
2023-01-04T07:53:20.981Z,6.21
2023-01-04T07:55:23.908Z,6.23
2023-01-04T07:57:25.453Z,6.15
2023-01-04T07:59:27.048Z,6.15
2023-01-04T08:01:28.480Z,6.17
2023-01-04T08:03:30.088Z,6.09
2023-01-04T08:05:32.150Z,6.09
2023-01-04T08:07:33.736Z,6.07
2023-01-04T08:09:35.123Z,6.05
2023-01-04T08:11:38.437Z,6.03
2023-01-04T08:13:40.172Z,6.07
2023-01-04T08:15:41.781Z,6.16
2023-01-04T08:17:43.410Z,6.18
2023-01-04T08:19:44.727Z,6.23
2023-01-04T08:21:47.452Z,6.10
2023-01-04T08:23:49.154Z,6.18
2023-01-04T08:25:50.723Z,6.18
2023-01-04T08:27:53.461Z,6.19
2023-01-04T08:29:55.007Z,6.13
2023-01-04T08:31:56.343Z,6.20
2023-01-04T08:33:58.866Z,6.16
2023-01-04T08:36:07.627Z,6.17
2023-01-04T08:38:55.585Z,6.15
2023-01-04T08:40:58.609Z,6.24
2023-01-04T08:42:53.910Z,6.26
2023-01-04T08:44:59.551Z,6.34
2023-01-04T08:47:02.523Z,6.38
2023-01-04T08:49:04.162Z,6.40
2023-01-04T08:51:06.749Z,6.45
2023-01-04T08:53:08.369Z,6.49
2023-01-04T08:55:13.152Z,6.47
2023-01-04T08:57:15.743Z,6.34
2023-01-04T08:59:18.745Z,6.45
2023-01-04T09:01:20.413Z,6.51
2023-01-04T09:03:22.088Z,6.45
2023-01-04T09:05:23.895Z,6.43
2023-01-04T09:07:26.046Z,6.38
2023-01-04T09:09:27.728Z,6.51
2023-01-04T09:11:29.332Z,6.14
2023-01-04T09:13:31.220Z,6.33
2023-01-04T09:15:34.554Z,6.29
2023-01-04T09:17:46.517Z,6.38
2023-01-04T09:19:57.601Z,6.43
2023-01-04T09:21:59.378Z,6.46
2023-01-04T09:24:01.047Z,6.43
2023-01-04T09:26:09.309Z,6.41
2023-01-04T09:28:11.339Z,6.46
2023-01-04T09:30:13.068Z,6.31
2023-01-04T09:32:16.967Z,6.37
2023-01-04T09:34:18.708Z,6.44
2023-01-04T09:36:20.523Z,6.56
2023-01-04T09:38:22.173Z,6.57
2023-01-04T09:40:31.075Z,6.62
2023-01-04T09:42:37.681Z,6.59
2023-01-04T09:45:22.074Z,6.46
2023-01-04T09:47:08.874Z,6.62
2023-01-04T09:49:18.552Z,6.55
2023-01-04T09:51:28.519Z,6.59
2023-01-04T09:53:36.126Z,6.63
2023-01-04T09:55:41.526Z,6.59
2023-01-04T09:57:51.418Z,6.60
2023-01-04T10:00:00.021Z,6.65
2023-01-04T10:02:04.751Z,6.64
2023-01-04T10:04:19.018Z,6.70
2023-01-04T10:06:20.657Z,6.81
2023-01-04T10:08:22.739Z,6.86
2023-01-04T10:10:41.388Z,6.81
2023-01-04T10:12:59.622Z,6.64
2023-01-04T10:15:25.859Z,6.70
2023-01-04T10:22:59.490Z,6.70
2023-01-04T10:25:20.622Z,6.67
2023-01-04T10:27:31.249Z,6.79
2023-01-04T10:29:55.734Z,6.70
2023-01-04T10:32:03.282Z,6.44
2023-01-04T10:34:18.932Z,6.60
2023-01-04T10:36:27.004Z,6.72
2023-01-04T10:38:32.562Z,6.68
2023-01-04T10:40:39.061Z,6.75
2023-01-04T10:42:48.583Z,6.71
2023-01-04T10:45:05.029Z,6.78
2023-01-04T10:47:15.544Z,6.85
2023-01-04T10:49:23.137Z,6.87
2023-01-04T10:51:33.996Z,6.83
2023-01-04T10:53:41.059Z,6.86
2023-01-04T10:56:25.650Z,6.87
2023-01-04T10:58:16.877Z,6.78
2023-01-04T11:00:23.709Z,6.88
2023-01-04T11:02:33.314Z,6.94
2023-01-04T11:04:39.752Z,6.97
2023-01-04T11:06:48.088Z,7.04
2023-01-04T11:08:55.617Z,7.09
2023-01-04T11:11:04.237Z,7.12
2023-01-04T11:13:06.523Z,7.12
2023-01-04T11:15:09.348Z,7.12
2023-01-04T11:17:12.552Z,7.15
2023-01-04T11:19:14.503Z,7.14
2023-01-04T11:21:21.135Z,7.20
2023-01-04T11:23:24.033Z,7.07
2023-01-04T11:25:36.561Z,7.22
2023-01-04T11:27:46.585Z,7.23
2023-01-04T11:29:54.706Z,7.29
2023-01-04T11:31:59.948Z,7.29
2023-01-04T11:34:03.703Z,7.36
2023-01-04T11:36:05.806Z,7.31
2023-01-04T11:38:12.443Z,7.41
2023-01-04T11:40:24.130Z,7.34
2023-01-04T11:42:25.672Z,7.40
2023-01-04T11:44:27.460Z,7.38
2023-01-04T11:46:30.529Z,7.44
2023-01-04T11:48:35.415Z,7.40
2023-01-04T11:50:40.568Z,7.50
2023-01-04T11:52:42.243Z,7.45
2023-01-04T11:54:43.812Z,7.39
2023-01-04T11:56:59.880Z,7.44
2023-01-04T11:59:11.045Z,7.43
2023-01-04T12:01:22.270Z,7.51
2023-01-04T12:03:27.225Z,7.57
2023-01-04T12:05:32.068Z,7.60
2023-01-04T12:07:35.471Z,7.61
2023-01-04T12:09:37.363Z,7.70
2023-01-04T12:11:42.734Z,7.70
2023-01-04T12:13:45.743Z,7.69
2023-01-04T12:15:58.048Z,7.67
2023-01-04T12:18:04.095Z,7.65
2023-01-04T12:20:18.842Z,7.74
2023-01-04T12:22:24.211Z,7.52
2023-01-04T12:24:29.484Z,7.58
2023-01-04T12:26:31.135Z,7.54
2023-01-04T12:28:36.324Z,7.69
2023-01-04T12:30:41.511Z,7.73
2023-01-04T12:32:46.726Z,7.70
2023-01-04T12:34:48.426Z,7.76
2023-01-04T12:36:59.874Z,7.65
2023-01-04T12:39:26.502Z,7.67
2023-01-04T12:42:13.653Z,7.73
2023-01-04T12:44:48.728Z,7.58
2023-01-04T12:46:52.688Z,7.62
2023-01-04T12:48:54.483Z,7.61
2023-01-04T12:51:37.369Z,7.63
2023-01-04T12:53:55.003Z,7.57
2023-01-04T12:55:57.026Z,7.59
2023-01-04T12:57:59.481Z,7.43
2023-01-04T13:00:04.248Z,7.36
2023-01-04T13:02:20.563Z,7.18
2023-01-04T13:04:38.487Z,7.31
2023-01-04T13:06:44.695Z,7.28
2023-01-04T13:08:49.320Z,7.28
2023-01-04T13:10:52.886Z,7.34
2023-01-04T13:13:13.481Z,7.26
2023-01-04T13:15:19.859Z,7.31
2023-01-04T13:17:26.057Z,7.35
2023-01-04T13:19:28.114Z,7.31
2023-01-04T13:21:32.575Z,7.25
2023-01-04T13:23:34.474Z,7.18
2023-01-04T13:25:36.103Z,7.23
2023-01-04T13:27:37.717Z,7.23
2023-01-04T13:29:40.899Z,7.31
2023-01-04T13:31:49.724Z,7.15
2023-01-04T13:33:52.756Z,7.25
2023-01-04T13:36:02.438Z,7.43
2023-01-04T13:38:11.632Z,7.50
2023-01-04T13:40:25.487Z,7.44
2023-01-04T13:42:29.611Z,7.48
2023-01-04T13:45:20.417Z,7.44
2023-01-04T13:47:22.711Z,7.55
2023-01-04T13:49:25.894Z,7.50
2023-01-04T13:51:35.855Z,7.44
2023-01-04T13:53:38.519Z,7.51
2023-01-04T13:55:40.308Z,7.59
2023-01-04T13:57:52.645Z,7.49
2023-01-04T13:59:54.294Z,7.35
2023-01-04T14:01:56.099Z,7.46
2023-01-04T14:04:01.312Z,7.47
2023-01-04T14:06:25.858Z,7.58
2023-01-04T14:08:33.617Z,7.47
2023-01-04T14:10:35.172Z,7.33
2023-01-04T14:12:36.603Z,7.23
2023-01-04T14:14:45.437Z,7.36
2023-01-04T14:16:47.465Z,7.46
2023-01-04T14:18:49.082Z,7.47
2023-01-04T14:20:50.530Z,7.44
2023-01-04T14:22:54.922Z,7.55
2023-01-04T14:25:13.214Z,7.53
2023-01-04T14:27:31.120Z,7.47
2023-01-04T14:29:32.729Z,7.50
2023-01-04T14:31:35.684Z,7.46
2023-01-04T14:33:41.685Z,7.56
2023-01-04T14:35:47.861Z,7.66
2023-01-04T14:37:53.973Z,7.68
2023-01-04T14:39:55.549Z,7.60
2023-01-04T14:41:56.999Z,7.72
2023-01-04T14:44:13.803Z,7.71
2023-01-04T14:46:16.079Z,7.58
2023-01-04T14:48:23.683Z,7.70
2023-01-04T14:50:25.519Z,7.62
2023-01-04T14:52:27.197Z,7.70
2023-01-04T14:54:30.988Z,7.74
2023-01-04T14:56:33.184Z,7.66
2023-01-04T14:58:34.709Z,7.80
2023-01-04T15:00:36.168Z,7.81
2023-01-04T15:02:38.021Z,7.83
2023-01-04T15:04:40.120Z,7.86
2023-01-04T15:06:48.904Z,7.84
2023-01-04T15:08:50.520Z,7.91
2023-01-04T15:10:59.659Z,7.75
2023-01-04T15:13:01.625Z,7.75
2023-01-04T15:15:03.139Z,7.77
2023-01-04T15:17:04.822Z,7.72
2023-01-04T15:19:06.571Z,7.86
2023-01-04T15:21:08.536Z,7.87
2023-01-04T15:23:10.126Z,7.87
2023-01-04T15:25:11.711Z,7.97
2023-01-04T15:27:14.659Z,7.88
2023-01-04T15:29:16.256Z,7.94
2023-01-04T15:31:21.044Z,8.03
2023-01-04T15:33:28.525Z,8.11
2023-01-04T15:35:30.192Z,8.09
2023-01-04T15:37:31.825Z,8.06
2023-01-04T15:39:33.924Z,8.08
2023-01-04T15:41:35.478Z,8.04
2023-01-04T15:43:38.205Z,8.01
2023-01-04T15:45:39.950Z,8.04
2023-01-04T15:47:41.654Z,7.99
2023-01-04T15:49:43.322Z,8.14
2023-01-04T15:51:45.046Z,8.19
2023-01-04T15:53:50.295Z,8.23
2023-01-04T15:55:51.849Z,8.26
2023-01-04T15:57:53.229Z,8.31
2023-01-04T15:59:56.221Z,8.21
2023-01-04T16:01:58.163Z,8.25
2023-01-04T16:03:59.839Z,8.21
2023-01-04T16:06:03.847Z,8.23
2023-01-04T16:08:06.038Z,8.22
2023-01-04T16:10:08.381Z,8.30
2023-01-04T16:12:10.053Z,8.28
2023-01-04T16:14:11.688Z,8.40
2023-01-04T16:16:15.413Z,8.32
2023-01-04T16:18:17.092Z,8.37
2023-01-04T16:20:19.266Z,8.36
2023-01-04T16:22:20.852Z,8.47
2023-01-04T16:25:00.436Z,8.43
2023-01-04T16:26:43.829Z,8.44
2023-01-04T16:28:49.873Z,8.38
2023-01-04T16:30:53.618Z,8.46
2023-01-04T16:32:56.637Z,8.30
2023-01-04T16:34:58.245Z,8.32
2023-01-04T16:36:59.823Z,8.31
2023-01-04T16:39:01.468Z,8.50
2023-01-04T16:41:04.058Z,8.39
2023-01-04T16:43:05.645Z,8.44
2023-01-04T16:45:07.756Z,8.57
2023-01-04T16:47:09.371Z,8.66
2023-01-04T16:49:15.096Z,8.64
2023-01-04T16:51:16.885Z,8.75
2023-01-04T16:53:18.414Z,8.74
2023-01-04T16:55:23.751Z,8.73
2023-01-04T16:57:26.533Z,8.69
2023-01-04T16:59:28.519Z,8.73
2023-01-04T17:01:31.878Z,8.81
2023-01-04T17:03:33.769Z,8.81
2023-01-04T17:05:40.295Z,8.86
2023-01-04T17:07:41.887Z,8.96
2023-01-04T17:09:43.718Z,9.00
2023-01-04T17:14:13.913Z,8.90
2023-01-04T17:16:16.192Z,8.97
2023-01-04T17:18:17.745Z,8.96
2023-01-04T17:20:19.114Z,8.87
2023-01-04T17:22:22.061Z,8.98
2023-01-04T17:24:23.641Z,8.99
2023-01-04T17:26:26.289Z,9.10
2023-01-04T17:28:27.902Z,9.07
2023-01-04T17:30:29.453Z,8.97
2023-01-04T17:32:30.793Z,8.99
2023-01-04T17:34:32.380Z,9.03
2023-01-04T17:36:34.064Z,8.90
2023-01-04T17:38:37.254Z,8.87
2023-01-04T17:40:38.880Z,8.93
2023-01-04T17:42:40.450Z,8.85
2023-01-04T17:44:42.129Z,9.05
2023-01-04T17:46:43.770Z,9.10
2023-01-04T17:48:45.493Z,9.14
2023-01-04T17:50:47.039Z,9.08
2023-01-04T17:52:48.853Z,9.23
2023-01-04T17:54:51.805Z,9.24
2023-01-04T17:56:53.392Z,9.23
2023-01-04T17:58:55.993Z,9.26
2023-01-04T18:00:57.640Z,9.30
2023-01-04T18:02:59.301Z,9.37
2023-01-04T18:05:01.480Z,9.27
2023-01-04T18:07:03.117Z,9.19
2023-01-04T18:09:06.468Z,9.31
2023-01-04T18:11:10.563Z,9.40
2023-01-04T18:13:12.368Z,9.33
2023-01-04T18:15:13.934Z,9.35
2023-01-04T18:17:15.610Z,9.40
2023-01-04T18:19:17.282Z,9.46
2023-01-04T18:21:29.260Z,9.56
2023-01-04T18:23:31.308Z,9.42
2023-01-04T18:25:33.220Z,9.47
2023-01-04T18:27:36.119Z,9.29
2023-01-04T18:29:37.723Z,9.25
2023-01-04T18:31:39.319Z,9.40
2023-01-04T18:33:41.461Z,9.53
2023-01-04T18:35:43.052Z,9.64
2023-01-04T18:37:44.637Z,9.53
2023-01-04T18:39:46.584Z,9.46
2023-01-04T18:41:48.590Z,9.54
2023-01-04T18:44:05.821Z,9.53
2023-01-04T18:46:14.378Z,9.59
2023-01-04T18:48:16.000Z,9.66
2023-01-04T18:50:18.034Z,9.68
2023-01-04T18:52:19.729Z,9.74
2023-01-04T18:54:21.779Z,9.76
2023-01-04T18:56:23.609Z,9.67
2023-01-04T18:58:25.244Z,9.73
2023-01-04T19:00:28.227Z,9.80
2023-01-04T19:02:30.001Z,9.64
2023-01-04T19:04:33.683Z,9.59
2023-01-04T19:06:35.299Z,9.67
2023-01-04T19:08:36.883Z,9.71
2023-01-04T19:10:38.433Z,9.48
2023-01-04T19:12:42.840Z,9.62
2023-01-04T19:14:44.452Z,9.50
2023-01-04T19:16:47.507Z,9.55
2023-01-04T19:18:49.152Z,9.54
2023-01-04T19:20:51.018Z,9.44
2023-01-04T19:22:52.775Z,9.62
2023-01-04T19:24:54.361Z,9.64
2023-01-04T19:26:56.050Z,9.71
2023-01-04T19:28:57.671Z,9.66
2023-01-04T19:31:04.871Z,9.69
2023-01-04T19:33:09.271Z,9.66
2023-01-04T19:35:11.527Z,9.65
2023-01-04T19:37:13.083Z,9.66
2023-01-04T19:39:14.726Z,9.54
2023-01-04T19:41:18.638Z,9.64
2023-01-04T19:43:20.249Z,9.50
2023-01-04T19:45:21.852Z,9.65
2023-01-04T19:47:23.402Z,9.55
2023-01-04T19:49:26.573Z,9.56
2023-01-04T19:51:28.152Z,9.55
2023-01-04T19:53:29.745Z,9.65
2023-01-04T19:55:31.336Z,9.52
2023-01-04T19:57:33.136Z,9.58
2023-01-04T19:59:34.709Z,9.69
2023-01-04T20:01:36.360Z,9.68
2023-01-04T20:03:38.333Z,9.68
2023-01-04T20:05:41.323Z,9.73
2023-01-04T20:07:43.199Z,9.75
2023-01-04T20:09:44.809Z,9.74
2023-01-04T20:11:46.345Z,9.70
2023-01-04T20:13:47.999Z,9.70
2023-01-04T20:15:50.802Z,9.61
2023-01-04T20:17:52.526Z,9.81
2023-01-04T20:19:54.101Z,9.76
2023-01-04T20:21:57.095Z,9.67
2023-01-04T20:23:59.980Z,9.69
2023-01-04T20:26:10.917Z,9.73
2023-01-04T20:28:13.902Z,9.63
2023-01-04T20:30:15.622Z,9.68
2023-01-04T20:32:17.202Z,9.72
2023-01-04T20:34:18.836Z,9.72
2023-01-04T20:36:22.455Z,9.80
2023-01-04T20:38:25.465Z,9.83
2023-01-04T20:40:27.675Z,9.89
2023-01-04T20:42:29.247Z,9.80
2023-01-04T20:44:30.603Z,9.88
2023-01-04T20:46:32.209Z,9.90
2023-01-04T20:48:33.854Z,9.87
2023-01-04T20:50:35.634Z,9.97
2023-01-04T20:52:37.146Z,9.92
2023-01-04T20:54:39.866Z,9.72
2023-01-04T20:56:41.439Z,9.82
2023-01-04T20:58:43.297Z,9.85
2023-01-04T21:00:45.308Z,9.82
2023-01-04T21:02:47.093Z,9.89
2023-01-04T21:04:48.734Z,9.96
2023-01-04T21:06:50.286Z,10.03
2023-01-04T21:08:53.218Z,10.00
2023-01-04T21:10:56.633Z,10.05
2023-01-04T21:12:58.331Z,10.10
2023-01-04T21:15:00.029Z,9.94
2023-01-04T21:17:01.603Z,9.99
2023-01-04T21:19:03.177Z,10.03
2023-01-04T21:21:06.226Z,10.00
2023-01-04T21:23:07.840Z,9.93
2023-01-04T21:25:09.635Z,10.01
2023-01-04T21:27:12.593Z,9.98
2023-01-04T21:29:14.151Z,10.01
2023-01-04T21:31:17.905Z,9.95
2023-01-04T21:33:19.677Z,9.79
2023-01-04T21:35:21.254Z,9.78
2023-01-04T21:37:22.836Z,9.79
2023-01-04T21:39:24.435Z,9.73
2023-01-04T21:41:26.299Z,9.61
2023-01-04T21:43:29.223Z,9.67
2023-01-04T21:45:30.837Z,9.73
2023-01-04T21:47:32.977Z,9.68
2023-01-04T21:49:34.592Z,9.66
2023-01-04T21:51:49.749Z,9.75
2023-01-04T21:53:51.436Z,9.77
2023-01-04T21:55:58.701Z,9.77
2023-01-04T21:58:00.325Z,9.64
2023-01-04T22:00:05.865Z,9.49
2023-01-04T22:02:07.649Z,9.46
2023-01-04T22:04:09.374Z,9.56
2023-01-04T22:06:11.241Z,9.48
2023-01-04T22:08:13.098Z,9.40
2023-01-04T22:10:14.885Z,9.40
2023-01-04T22:12:16.993Z,9.45
2023-01-04T22:14:18.979Z,9.50
2023-01-04T22:16:22.104Z,9.44
2023-01-04T22:18:23.802Z,9.56
2023-01-04T22:20:25.343Z,9.56
2023-01-04T22:22:28.692Z,9.69
2023-01-04T22:24:35.517Z,9.70
2023-01-04T22:26:39.877Z,9.62
2023-01-04T22:28:41.710Z,9.54
2023-01-04T22:30:43.249Z,9.48
2023-01-04T22:32:46.007Z,9.34
2023-01-04T22:34:47.640Z,9.29
2023-01-04T22:36:49.236Z,9.36
2023-01-04T22:38:51.456Z,9.27
2023-01-04T22:40:53.121Z,9.21
2023-01-04T22:42:54.670Z,9.33
2023-01-04T22:44:56.064Z,9.25
2023-01-04T22:46:57.970Z,9.25
2023-01-04T22:49:02.177Z,9.20
2023-01-04T22:51:09.801Z,9.20
2023-01-04T22:53:13.260Z,9.24
2023-01-04T22:55:15.000Z,9.28
2023-01-04T22:57:19.203Z,9.33
2023-01-04T22:59:20.890Z,9.40
2023-01-04T23:01:24.217Z,9.33
2023-01-04T23:03:26.136Z,9.39
2023-01-04T23:05:29.218Z,9.46
2023-01-04T23:07:33.410Z,9.40
2023-01-04T23:09:34.988Z,9.38
2023-01-04T23:11:37.142Z,9.32
2023-01-04T23:13:39.467Z,9.30
2023-01-04T23:15:41.003Z,9.38
2023-01-04T23:17:42.431Z,9.30
2023-01-04T23:19:47.014Z,9.25
2023-01-04T23:21:50.161Z,9.32
2023-01-04T23:23:51.774Z,9.24
2023-01-04T23:25:53.403Z,9.26
2023-01-04T23:27:54.972Z,9.17
2023-01-04T23:29:56.639Z,9.09
2023-01-04T23:31:58.193Z,9.16
2023-01-04T23:34:02.388Z,9.13
2023-01-04T23:36:08.777Z,9.14
2023-01-04T23:38:12.242Z,9.02
2023-01-04T23:40:13.849Z,8.99
2023-01-04T23:42:16.056Z,8.98
2023-01-04T23:44:20.230Z,8.87
2023-01-04T23:46:21.735Z,8.83
2023-01-04T23:48:23.108Z,8.94
2023-01-04T23:50:24.673Z,8.84
2023-01-04T23:52:26.032Z,8.79
2023-01-04T23:54:29.314Z,8.83
2023-01-04T23:56:30.892Z,8.84
2023-01-04T23:58:32.317Z,8.84
